Time;durP1;ratioP1;P1;durP2;ratioP2;P2;SDS_P1;SDS_P2;PMS_P1;PMS_P2;Temp;Humidity;BMP_temperature;BMP_pressure;BME280_temperature;BME280_humidity;BME280_pressure;Samples;Min_cycle;Max_cycle;Signal;HPM_P1;HPM_P2
2023/05/25 00:01:36;;;;;;;;;;;;;;;;;;5031976;28;20031;-60
2023/05/25 00:04:02;;;;;;;;;;;;;;;;;;5058203;28;20452;-59
2023/05/25 00:06:28;;;;;;;;;;;;;;;;;;5058146;28;19924;-59
2023/05/25 00:08:56;;;;;;;;;;;;;;;;;;5049845;28;20022;-59
2023/05/25 00:11:22;;;;;;;;;;;;;;;;;;5060211;28;19928;-58
2023/05/25 00:13:48;;;;;;;;;;;;;;;;;;5059462;28;20302;-59
2023/05/25 00:16:14;;;;;;;;;;;;;;;;;;5054070;28;19925;-58
2023/05/25 00:18:40;;;;;;;;;;;;;;;;;;5060223;28;20027;-58
2023/05/25 00:21:06;;;;;;;;;;;;;;;;;;5042803;28;20027;-58
2023/05/25 00:23:32;;;;;;;;;;;;;;;;;;5049403;28;19928;-58
2023/05/25 00:25:58;;;;;;;;;;;;;;;;;;5046320;28;20378;-58
2023/05/25 00:28:24;;;;;;;;;;;;;;;;;;5055799;28;19925;-58
2023/05/25 00:30:50;;;;;;;;;;;;;;;;;;5056384;28;19978;-58
2023/05/25 00:33:16;;;;;;;;;;;;;;;;;;5050380;28;20349;-59
2023/05/25 00:35:43;;;;;;;;;;;;;;;;;;5050138;28;19932;-58
2023/05/25 00:38:09;;;;;;;;;;;;;;;;;;5061183;28;20370;-59
2023/05/25 00:40:35;;;;;;;;;;;;;;;;;;5064731;28;19950;-60
2023/05/25 00:43:01;;;;;;;;;;;;;;;;;;5062528;28;19925;-58
2023/05/25 00:45:27;;;;;;;;;;;;;;;;;;5055612;28;20468;-59
2023/05/25 00:47:53;;;;;;;;;;;;;;;;;;5054324;28;19932;-58
2023/05/25 00:50:19;;;;;;;;;;;;;;;;;;5053740;28;20370;-58
2023/05/25 00:52:45;;;;;;;;;;;;;;;;;;5059817;28;19971;-58
2023/05/25 00:55:12;;;;;;;;;;;;;;;;;;5064184;28;19929;-59
2023/05/25 00:57:38;;;;;;;;;;;;;;;;;;5057095;28;19928;-59
2023/05/25 01:00:09;;;;;;;;;;;;;;;;;;5064145;28;20329;-58
2023/05/25 01:02:36;;;;;;;;;;;;;;;;;;5063149;28;20333;-59
2023/05/25 01:05:02;;;;;;;;;;;;;;;;;;5061378;28;19932;-58
2023/05/25 01:07:28;;;;;;;;;;;;;;;;;;5060641;28;19925;-58
2023/05/25 01:09:54;;;;;;;;;;;;;;;;;;5057638;28;19925;-59
2023/05/25 01:12:20;;;;;;;;;;;;;;;;;;5045273;28;20797;-58
2023/05/25 01:14:47;;;;;;;;;;;;;;;;;;5048595;28;20461;-59
2023/05/25 01:17:13;;;;;;;;;;;;;;;;;;5046879;28;20432;-58
2023/05/25 01:19:40;;;;;;;;;;;;;;;;;;5045982;28;19935;-59
2023/05/25 01:22:06;;;;;;;;;;;;;;;;;;5058795;28;20369;-59
2023/05/25 01:24:32;;;;;;;;;;;;;;;;;;5049594;28;19933;-58
2023/05/25 01:26:58;;;;;;;;;;;;;;;;;;5044948;28;19960;-59
2023/05/25 01:29:24;;;;;;;;;;;;;;;;;;5049522;28;20377;-58
2023/05/25 01:31:50;;;;;;;;;;;;;;;;;;5045551;28;19924;-59
2023/05/25 01:34:16;;;;;;;;;;;;;;;;;;5062958;28;20383;-59
2023/05/25 01:36:42;;;;;;;;;;;;;;;;;;5059023;28;19924;-59
2023/05/25 01:39:09;;;;;;;;;;;;;;;;;;5060398;28;19932;-59
2023/05/25 01:41:35;;;;;;;;;;;;;;;;;;5049833;28;20007;-59
2023/05/25 01:44:01;;;;;;;;;;;;;;;;;;5059723;28;19944;-58
2023/05/25 01:46:27;;;;;;;;;;;;;;;;;;5050940;28;19929;-59
2023/05/25 01:48:53;;;;;;;;;;;;;;;;;;5057872;28;19925;-58
2023/05/25 01:51:19;;;;;;;;;;;;;;;;;;5046395;28;19931;-59
2023/05/25 01:53:45;;;;;;;;;;;;;;;;;;5057470;28;19925;-59
2023/05/25 01:56:11;;;;;;;;;;;;;;;;;;5061941;28;19924;-58
2023/05/25 01:58:37;;;;;;;;;;;;;;;;;;5062638;28;20399;-59
2023/05/25 02:01:03;;;;;;;;;;;;;;;;;;5057010;28;19925;-58
2023/05/25 02:03:29;;;;;;;;;;;;;;;;;;5060957;28;19932;-58
2023/05/25 02:05:56;;;;;;;;;;;;;;;;;;5054917;28;19925;-59
2023/05/25 02:08:22;;;;;;;;;;;;;;;;;;5059346;28;19928;-58
2023/05/25 02:10:48;;;;;;;;;;;;;;;;;;5061173;28;19936;-59
2023/05/25 02:13:14;;;;;;;;;;;;;;;;;;5059754;28;19924;-58
2023/05/25 02:15:40;;;;;;;;;;;;;;;;;;5047744;28;19924;-59
2023/05/25 02:18:07;;;;;;;;;;;;;;;;;;5056042;28;20110;-59
2023/05/25 02:20:33;;;;;;;;;;;;;;;;;;5062216;28;19928;-58
2023/05/25 02:22:59;;;;;;;;;;;;;;;;;;5061020;28;20344;-58
2023/05/25 02:25:25;;;;;;;;;;;;;;;;;;5062257;28;20267;-58
2023/05/25 02:27:51;;;;;;;;;;;;;;;;;;5061253;28;19954;-59
2023/05/25 02:30:17;;;;;;;;;;;;;;;;;;5049543;28;19932;-58
2023/05/25 02:32:43;;;;;;;;;;;;;;;;;;5059172;28;19924;-58
2023/05/25 02:35:09;;;;;;;;;;;;;;;;;;5057036;28;19936;-58
2023/05/25 02:37:35;;;;;;;;;;;;;;;;;;5061890;28;20328;-60
2023/05/25 02:40:02;;;;;;;;;;;;;;;;;;5061688;28;19939;-58
2023/05/25 02:42:28;;;;;;;;;;;;;;;;;;5057949;28;19930;-58
2023/05/25 02:44:54;;;;;;;;;;;;;;;;;;5052259;28;19932;-58
2023/05/25 02:47:20;;;;;;;;;;;;;;;;;;5058328;28;19924;-58
2023/05/25 02:49:46;;;;;;;;;;;;;;;;;;5053574;28;19934;-58
2023/05/25 02:52:12;;;;;;;;;;;;;;;;;;5060410;28;19943;-58
2023/05/25 02:54:38;;;;;;;;;;;;;;;;;;5050886;28;19932;-59
2023/05/25 02:57:04;;;;;;;;;;;;;;;;;;5056532;28;19924;-58
2023/05/25 02:59:30;;;;;;;;;;;;;;;;;;5057895;28;19925;-58
2023/05/25 03:01:56;;;;;;;;;;;;;;;;;;5054698;28;19935;-59
2023/05/25 03:04:25;;;;;;;;;;;;;;;;;;5049083;28;19928;-57
2023/05/25 03:06:58;;;;;;;;;;;;;;;;;;5056292;28;19928;-57
2023/05/25 03:09:27;;;;;;;;;;;;;;;;;;5056336;28;19929;-59
2023/05/25 03:11:53;;;;;;;;;;;;;;;;;;5057145;28;20025;-58
2023/05/25 03:14:20;;;;;;;;;;;;;;;;;;5057871;28;19932;-58
2023/05/25 03:16:49;;;;;;;;;;;;;;;;;;5058966;28;19928;-59
2023/05/25 03:19:19;;;;;;;;;;;;;;;;;;5061096;28;19978;-58
2023/05/25 03:21:48;;;;;;;;;;;;;;;;;;5058723;28;19924;-58
2023/05/25 03:24:21;;;;;;;;;;;;;;;;;;5060767;28;20422;-58
2023/05/25 03:26:51;;;;;;;;;;;;;;;;;;5059305;28;19931;-58
2023/05/25 03:29:17;;;;;;;;;;;;;;;;;;5050829;28;19925;-58
2023/05/25 03:31:46;;;;;;;;;;;;;;;;;;5060289;28;19928;-58
2023/05/25 03:34:19;;;;;;;;;;;;;;;;;;5051305;28;19924;-58
2023/05/25 03:36:53;;;;;;;;;;;;;;;;;;5054755;28;20015;-59
2023/05/25 03:39:23;;;;;;;;;;;;;;;;;;5043964;28;19935;-58
2023/05/25 03:41:50;;;;;;;;;;;;;;;;;;5053893;28;19925;-58
2023/05/25 03:44:19;;;;;;;;;;;;;;;;;;5058477;28;20302;-58
2023/05/25 03:46:52;;;;;;;;;;;;;;;;;;5047984;28;19925;-58
2023/05/25 03:49:26;;;;;;;;;;;;;;;;;;5050240;28;19968;-58
2023/05/25 03:52:00;;;;;;;;;;;;;;;;;;5044476;28;20016;-58
2023/05/25 03:54:32;;;;;;;;;;;;;;;;;;5059917;28;20019;-58
2023/05/25 03:57:05;;;;;;;;;;;;;;;;;;5052994;28;19932;-58
2023/05/25 03:59:38;;;;;;;;;;;;;;;;;;5050479;28;19925;-63
2023/05/25 04:02:11;;;;;;;;;;;;;;;;;;5055907;28;20015;-59
2023/05/25 04:04:40;;;;;;;;;;;;;;;;;;5057247;28;20425;-59
2023/05/25 04:07:06;;;;;;;;;;;;;;;;;;5052515;28;19929;-59
2023/05/25 04:09:32;;;;;;;;;;;;;;;;;;5054143;28;19933;-58
2023/05/25 04:11:58;;;;;;;;;;;;;;;;;;5034572;28;19931;-58
2023/05/25 04:14:25;;;;;;;;;;;;;;;;;;5049496;28;19931;-58
2023/05/25 04:16:52;;;;;;;;;;;;;;;;;;5049073;28;20451;-57
2023/05/25 04:19:18;;;;;;;;;;;;;;;;;;5060895;28;20442;-58
2023/05/25 04:21:44;;;;;;;;;;;;;;;;;;5059592;28;19975;-57
2023/05/25 04:24:10;;;;;;;;;;;;;;;;;;5055699;28;19960;-58
2023/05/25 04:26:38;;;;;;;;;;;;;;;;;;5052918;28;19925;-58
2023/05/25 04:29:04;;;;;;;;;;;;;;;;;;5062452;28;21824;-58
2023/05/25 04:31:30;;;;;;;;;;;;;;;;;;5059372;28;19932;-58
2023/05/25 04:33:57;;;;;;;;;;;;;;;;;;5054360;28;19971;-58
2023/05/25 04:36:23;;;;;;;;;;;;;;;;;;5055602;28;20493;-58
2023/05/25 04:38:51;;;;;;;;;;;;;;;;;;5062502;28;20406;-58
2023/05/25 04:41:16;;;;;;;;;;;;;;;;;;5040120;28;20401;-59
2023/05/25 04:43:49;;;;;;;;;;;;;;;;;;5056384;28;20027;-57
2023/05/25 04:46:15;;;;;;;;;;;;;;;;;;5058661;28;20811;-58
2023/05/25 04:48:42;;;;;;;;;;;;;;;;;;5053356;28;19962;-58
2023/05/25 04:51:08;;;;;;;;;;;;;;;;;;5037344;28;19971;-58
2023/05/25 04:53:34;;;;;;;;;;;;;;;;;;5064006;28;19925;-58
2023/05/25 04:56:00;;;;;;;;;;;;;;;;;;5045062;28;19924;-58
2023/05/25 04:58:28;;;;;;;;;;;;;;;;;;5043408;28;19959;-59
2023/05/25 05:00:54;;;;;;;;;;;;;;;;;;5052926;28;19998;-58
2023/05/25 05:03:20;;;;;;;;;;;;;;;;;;5057235;28;20320;-60
2023/05/25 05:05:49;;;;;;;;;;;;;;;;;;5054329;28;19929;-60
2023/05/25 05:08:29;;;;;;;;;;;;;;;;;;5052810;28;19949;-60
2023/05/25 05:10:55;;;;;;;;;;;;;;;;;;5049520;28;20373;-59
2023/05/25 05:13:21;;;;;;;;;;;;;;;;;;5050923;28;20011;-59
2023/05/25 05:24:57;;;;;;;;;;;;;;;;;;5057060;28;19983;-58
2023/05/25 05:27:26;;;;;;;;;;;;;;;;;;5058610;28;20443;-59
2023/05/25 05:29:53;;;;;;;;;;;;;;;;;;5053735;28;19925;-58
2023/05/25 05:32:22;;;;;;;;;;;;;;;;;;5060309;28;19983;-59
2023/05/25 05:34:55;;;;;;;;;;;;;;;;;;5055439;28;19931;-59
2023/05/25 05:37:28;;;;;;;;;;;;;;;;;;5052373;28;19971;-58
2023/05/25 05:40:00;;;;;;;;;;;;;;;;;;5054625;28;19985;-59
2023/05/25 05:42:34;;;;;;;;;;;;;;;;;;5047492;28;19990;-58
2023/05/25 05:45:07;;;;;;;;;;;;;;;;;;5056128;28;20011;-59
2023/05/25 05:47:39;;;;;;;;;;;;;;;;;;5050997;28;19928;-59
2023/05/25 05:50:12;;;;;;;;;;;;;;;;;;5049244;28;19925;-60
2023/05/25 05:52:45;;;;;;;;;;;;;;;;;;5048790;28;19989;-59
2023/05/25 05:55:14;;;;;;;;;;;;;;;;;;5045245;28;20012;-60
2023/05/25 05:57:40;;;;;;;;;;;;;;;;;;5050258;28;20047;-60
2023/05/25 06:00:07;;;;;;;;;;;;;;;;;;5059150;28;19928;-61
2023/05/25 06:02:33;;;;;;;;;;;;;;;;;;5052148;28;20353;-60
2023/05/25 06:05:00;;;;;;;;;;;;;;;;;;5048948;28;20370;-60
2023/05/25 06:07:27;;;;;;;;;;;;;;;;;;5049760;28;19968;-60
2023/05/25 06:09:54;;;;;;;;;;;;;;;;;;5048905;28;19932;-60
2023/05/25 06:12:20;;;;;;;;;;;;;;;;;;5044467;28;19929;-60
2023/05/25 06:14:48;;;;;;;;;;;;;;;;;;5054719;28;19998;-61
2023/05/25 06:17:14;;;;;;;;;;;;;;;;;;5053173;28;19929;-61
2023/05/25 06:19:40;;;;;;;;;;;;;;;;;;5048782;28;19925;-61
2023/05/25 06:22:06;;;;;;;;;;;;;;;;;;5046997;28;19968;-61
2023/05/25 06:24:33;;;;;;;;;;;;;;;;;;5055498;28;20029;-60
2023/05/25 06:26:59;;;;;;;;;;;;;;;;;;5054315;28;20384;-60
2023/05/25 06:29:25;;;;;;;;;;;;;;;;;;5048621;28;20299;-60
2023/05/25 06:31:51;;;;;;;;;;;;;;;;;;5050246;28;20550;-61
2023/05/25 06:34:17;;;;;;;;;;;;;;;;;;5034386;28;20382;-60
2023/05/25 06:36:43;;;;;;;;;;;;;;;;;;5047446;28;19935;-60
2023/05/25 06:39:09;;;;;;;;;;;;;;;;;;5052380;28;19944;-61
2023/05/25 06:41:35;;;;;;;;;;;;;;;;;;5046997;28;19929;-65
2023/05/25 06:44:01;;;;;;;;;;;;;;;;;;5050686;28;20011;-60
2023/05/25 06:46:27;;;;;;;;;;;;;;;;;;5053801;28;20015;-61
2023/05/25 06:48:53;;;;;;;;;;;;;;;;;;5057841;28;20188;-60
2023/05/25 06:51:19;;;;;;;;;;;;;;;;;;5053252;28;19983;-60
2023/05/25 06:53:45;;;;;;;;;;;;;;;;;;5050645;28;20050;-61
2023/05/25 06:56:15;;;;;;;;;;;;;;;;;;5043315;28;20282;-61
2023/05/25 06:58:52;;;;;;;;;;;;;;;;;;5049513;28;20267;-61
2023/05/25 07:01:21;;;;;;;;;;;;;;;;;;5049053;28;20396;-60
2023/05/25 07:03:51;;;;;;;;;;;;;;;;;;5054131;28;19924;-61
2023/05/25 07:06:26;;;;;;;;;;;;;;;;;;5044446;28;20007;-61
2023/05/25 07:08:59;;;;;;;;;;;;;;;;;;5050667;28;19925;-60
2023/05/25 07:11:33;;;;;;;;;;;;;;;;;;5044061;28;19924;-61
2023/05/25 07:14:07;;;;;;;;;;;;;;;;;;5050624;28;19952;-60
2023/05/25 07:16:37;;;;;;;;;;;;;;;;;;5052149;28;19924;-63
2023/05/25 07:19:07;;;;;;;;;;;;;;;;;;5049003;28;20042;-61
2023/05/25 07:21:37;;;;;;;;;;;;;;;;;;5052289;28;19928;-61
2023/05/25 07:24:03;;;;;;;;;;;;;;;;;;5054412;28;20325;-60
2023/05/25 07:26:29;;;;;;;;;;;;;;;;;;5045836;28;20009;-60
2023/05/25 07:28:55;;;;;;;;;;;;;;;;;;5045999;28;19933;-60
2023/05/25 07:31:21;;;;;;;;;;;;;;;;;;5054049;28;19928;-60
2023/05/25 07:33:48;;;;;;;;;;;;;;;;;;5055488;28;20018;-61
2023/05/25 07:36:14;;;;;;;;;;;;;;;;;;5032396;28;19975;-60
2023/05/25 07:38:40;;;;;;;;;;;;;;;;;;5048848;28;19924;-60
2023/05/25 07:41:07;;;;;;;;;;;;;;;;;;5045708;28;20449;-61
2023/05/25 07:43:33;;;;;;;;;;;;;;;;;;5051115;28;19978;-60
2023/05/25 07:46:00;;;;;;;;;;;;;;;;;;5051202;28;19933;-60
2023/05/25 07:48:26;;;;;;;;;;;;;;;;;;5026516;28;19933;-60
2023/05/25 07:50:52;;;;;;;;;;;;;;;;;;5047075;28;19932;-61
2023/05/25 07:53:18;;;;;;;;;;;;;;;;;;5031344;28;20478;-61
2023/05/25 07:55:44;;;;;;;;;;;;;;;;;;5053733;28;19928;-61
2023/05/25 07:58:10;;;;;;;;;;;;;;;;;;5052974;28;19978;-60
2023/05/25 08:00:40;;;;;;;;;;;;;;;;;;5051715;28;19997;-61
2023/05/25 08:03:13;;;;;;;;;;;;;;;;;;5049552;28;19925;-61
2023/05/25 08:05:45;;;;;;;;;;;;;;;;;;5048792;28;20527;-61
2023/05/25 08:08:18;;;;;;;;;;;;;;;;;;5047830;28;20047;-61
2023/05/25 08:10:48;;;;;;;;;;;;;;;;;;5050863;28;20382;-61
2023/05/25 08:13:15;;;;;;;;;;;;;;;;;;5050262;28;19971;-61
2023/05/25 08:15:44;;;;;;;;;;;;;;;;;;5049899;28;20002;-61
2023/05/25 08:18:10;;;;;;;;;;;;;;;;;;5053946;28;19931;-60
2023/05/25 08:20:36;;;;;;;;;;;;;;;;;;5049660;28;19955;-61
2023/05/25 08:23:03;;;;;;;;;;;;;;;;;;5048662;28;20256;-60
2023/05/25 08:25:29;;;;;;;;;;;;;;;;;;5042917;28;19929;-60
2023/05/25 08:27:55;;;;;;;;;;;;;;;;;;5041929;28;19935;-60
2023/05/25 08:30:21;;;;;;;;;;;;;;;;;;5045256;28;19928;-60
2023/05/25 08:32:47;;;;;;;;;;;;;;;;;;5045165;28;20015;-60
2023/05/25 08:35:13;;;;;;;;;;;;;;;;;;5050842;28;19940;-61
2023/05/25 08:37:39;;;;;;;;;;;;;;;;;;5026383;28;19924;-59
2023/05/25 08:40:06;;;;;;;;;;;;;;;;;;5045012;28;20321;-60
2023/05/25 08:42:32;;;;;;;;;;;;;;;;;;5048961;28;19970;-60
2023/05/25 08:44:58;;;;;;;;;;;;;;;;;;5034781;28;20470;-60
2023/05/25 08:47:24;;;;;;;;;;;;;;;;;;5050811;28;19925;-60
2023/05/25 08:49:51;;;;;;;;;;;;;;;;;;5054056;28;19964;-59
2023/05/25 08:52:17;;;;;;;;;;;;;;;;;;5047932;28;19978;-59
2023/05/25 08:54:43;;;;;;;;;;;;;;;;;;5047590;28;19925;-59
2023/05/25 08:57:10;;;;;;;;;;;;;;;;;;5053251;28;20663;-59
2023/05/25 08:59:36;;;;;;;;;;;;;;;;;;5050452;28;19981;-60
2023/05/25 09:02:02;;;;;;;;;;;;;;;;;;5052625;28;20025;-59
2023/05/25 09:04:28;;;;;;;;;;;;;;;;;;5054375;28;19928;-60
2023/05/25 09:06:54;;;;;;;;;;;;;;;;;;5034662;28;19925;-59
2023/05/25 09:09:20;;;;;;;;;;;;;;;;;;5049725;28;20035;-59
2023/05/25 09:11:46;;;;;;;;;;;;;;;;;;5052361;28;19991;-60
2023/05/25 09:14:13;;;;;;;;;;;;;;;;;;5049572;28;19951;-60
2023/05/25 09:16:39;;;;;;;;;;;;;;;;;;5054784;28;19968;-60
2023/05/25 09:19:05;;;;;;;;;;;;;;;;;;5054477;28;19978;-59
2023/05/25 09:21:31;;;;;;;;;;;;;;;;;;5050027;28;20406;-59
2023/05/25 09:27:02;;;;;;;;;;;;;;;;;;5052625;28;19930;-60
2023/05/25 09:29:35;;;;;;;;;;;;;;;;;;5049393;28;19939;-58
2023/05/25 09:32:09;;;;;;;;;;;;;;;;;;5049249;28;20385;-59
2023/05/25 09:34:38;;;;;;;;;;;;;;;;;;5057225;28;20393;-59
2023/05/25 09:37:04;;;;;;;;;;;;;;;;;;5048079;28;19925;-59
2023/05/25 09:39:34;;;;;;;;;;;;;;;;;;5051210;28;19986;-59
2023/05/25 09:42:08;;;;;;;;;;;;;;;;;;5057244;28;19936;-59
2023/05/25 09:44:42;;;;;;;;;;;;;;;;;;5055242;28;19931;-60
2023/05/25 09:47:12;;;;;;;;;;;;;;;;;;5052633;28;19932;-60
2023/05/25 09:49:38;;;;;;;;;;;;;;;;;;5047192;28;19925;-60
2023/05/25 09:52:04;;;;;;;;;;;;;;;;;;5052849;28;20119;-60
2023/05/25 09:54:33;;;;;;;;;;;;;;;;;;5046837;28;19925;-60
2023/05/25 09:57:05;;;;;;;;;;;;;;;;;;5054867;28;20465;-60
2023/05/25 09:59:39;;;;;;;;;;;;;;;;;;5048165;28;19932;-61
2023/05/25 10:02:08;;;;;;;;;;;;;;;;;;5054677;28;19933;-59
2023/05/25 10:04:34;;;;;;;;;;;;;;;;;;5047854;28;19929;-58
2023/05/25 10:07:00;;;;;;;;;;;;;;;;;;5049179;28;19925;-59
2023/05/25 10:09:26;;;;;;;;;;;;;;;;;;5052845;28;19928;-59
2023/05/25 10:11:53;;;;;;;;;;;;;;;;;;5046507;28;19944;-58
2023/05/25 10:14:19;;;;;;;;;;;;;;;;;;5053953;28;19982;-58
2023/05/25 10:16:45;;;;;;;;;;;;;;;;;;5043240;28;19925;-59
2023/05/25 10:19:11;;;;;;;;;;;;;;;;;;5055197;28;19929;-58
2023/05/25 10:21:37;;;;;;;;;;;;;;;;;;5052436;28;19924;-59
2023/05/25 10:24:03;;;;;;;;;;;;;;;;;;5053263;28;20012;-59
2023/05/25 10:26:29;;;;;;;;;;;;;;;;;;5055961;28;19978;-58
2023/05/25 10:28:56;;;;;;;;;;;;;;;;;;5033810;28;20051;-59
2023/05/25 10:31:22;;;;;;;;;;;;;;;;;;5048221;28;19928;-58
2023/05/25 10:33:48;;;;;;;;;;;;;;;;;;5051986;28;19925;-57
2023/05/25 10:36:14;;;;;;;;;;;;;;;;;;5051739;28;20293;-57
2023/05/25 10:38:42;;;;;;;;;;;;;;;;;;5054217;28;19929;-58
2023/05/25 10:41:08;;;;;;;;;;;;;;;;;;5048177;28;19936;-59
2023/05/25 10:43:34;;;;;;;;;;;;;;;;;;5051017;28;19929;-56
2023/05/25 10:46:00;;;;;;;;;;;;;;;;;;5054674;28;19983;-57
2023/05/25 10:48:26;;;;;;;;;;;;;;;;;;5046275;28;19925;-57
2023/05/25 10:50:53;;;;;;;;;;;;;;;;;;5046289;28;20294;-60
2023/05/25 10:53:20;;;;;;;;;;;;;;;;;;5051073;28;19932;-59
2023/05/25 10:55:49;;;;;;;;;;;;;;;;;;5049514;28;19932;-61
2023/05/25 10:58:21;;;;;;;;;;;;;;;;;;5049509;28;19936;-60
2023/05/25 11:00:52;;;;;;;;;;;;;;;;;;5048333;28;19925;-58
2023/05/25 11:03:22;;;;;;;;;;;;;;;;;;5044321;28;19929;-59
2023/05/25 11:05:52;;;;;;;;;;;;;;;;;;5047639;28;20313;-59
2023/05/25 11:08:24;;;;;;;;;;;;;;;;;;5053683;28;20048;-59
2023/05/25 11:10:57;;;;;;;;;;;;;;;;;;5045386;28;19931;-59
2023/05/25 11:13:30;;;;;;;;;;;;;;;;;;5052685;28;19937;-59
2023/05/25 11:16:03;;;;;;;;;;;;;;;;;;5056406;28;19932;-59
2023/05/25 11:18:36;;;;;;;;;;;;;;;;;;5050636;28;20302;-60
2023/05/25 11:21:09;;;;;;;;;;;;;;;;;;5050118;28;20264;-60
2023/05/25 11:23:43;;;;;;;;;;;;;;;;;;5046767;28;20019;-60
2023/05/25 11:26:17;;;;;;;;;;;;;;;;;;5050940;28;19983;-60
2023/05/25 11:28:51;;;;;;;;;;;;;;;;;;5047878;28;19940;-60
2023/05/25 11:31:27;;;;;;;;;;;;;;;;;;5047148;28;20007;-60
2023/05/25 11:34:01;;;;;;;;;;;;;;;;;;5046581;28;19936;-60
2023/05/25 11:36:34;;;;;;;;;;;;;;;;;;5049372;28;19967;-59
2023/05/25 11:41:51;;;;;;;;;;;;;;;;;;5059139;28;19932;-60
2023/05/25 11:44:27;;;;;;;;;;;;;;;;;;5048532;28;19932;-60
2023/05/25 11:47:00;;;;;;;;;;;;;;;;;;5049527;28;19928;-61
2023/05/25 11:49:29;;;;;;;;;;;;;;;;;;5046852;28;20305;-61
2023/05/25 11:51:55;;;;;;;;;;;;;;;;;;5050326;28;20341;-60
2023/05/25 11:54:21;;;;;;;;;;;;;;;;;;5047904;28;20024;-61
2023/05/25 11:56:47;;;;;;;;;;;;;;;;;;5042835;28;19984;-61
2023/05/25 11:59:13;;;;;;;;;;;;;;;;;;5054991;28;20015;-61
2023/05/25 12:01:40;;;;;;;;;;;;;;;;;;5049131;28;20388;-61
2023/05/25 12:04:06;;;;;;;;;;;;;;;;;;5052304;28;19935;-61
2023/05/25 12:06:35;;;;;;;;;;;;;;;;;;5045967;28;19925;-60
2023/05/25 12:09:01;;;;;;;;;;;;;;;;;;5049902;28;19986;-61
2023/05/25 12:11:27;;;;;;;;;;;;;;;;;;5051408;28;20011;-60
2023/05/25 12:13:53;;;;;;;;;;;;;;;;;;5031086;28;19932;-61
2023/05/25 12:16:19;;;;;;;;;;;;;;;;;;5025718;28;19924;-60
2023/05/25 12:18:45;;;;;;;;;;;;;;;;;;5053716;28;19932;-60
2023/05/25 12:21:11;;;;;;;;;;;;;;;;;;5054158;28;20144;-61
2023/05/25 12:23:37;;;;;;;;;;;;;;;;;;5058948;28;19982;-61
2023/05/25 12:26:03;;;;;;;;;;;;;;;;;;5059002;28;20293;-61
2023/05/25 12:28:29;;;;;;;;;;;;;;;;;;5051413;28;20396;-60
2023/05/25 12:30:56;;;;;;;;;;;;;;;;;;5052811;28;19990;-61
2023/05/25 12:33:22;;;;;;;;;;;;;;;;;;5051276;28;19968;-60
2023/05/25 12:35:48;;;;;;;;;;;;;;;;;;5061170;28;20025;-60
2023/05/25 12:38:14;;;;;;;;;;;;;;;;;;5060810;28;19928;-60
2023/05/25 12:40:40;;;;;;;;;;;;;;;;;;5064288;28;19924;-61
2023/05/25 12:43:06;;;;;;;;;;;;;;;;;;5058827;28;19940;-61
2023/05/25 12:45:32;;;;;;;;;;;;;;;;;;5064067;28;20370;-61
2023/05/25 12:47:58;;;;;;;;;;;;;;;;;;5047684;28;19929;-61
2023/05/25 12:50:24;;;;;;;;;;;;;;;;;;5056704;28;19928;-60
2023/05/25 12:52:50;;;;;;;;;;;;;;;;;;5065878;28;19924;-61
2023/05/25 12:55:20;;;;;;;;;;;;;;;;;;5041494;28;19928;-61
2023/05/25 12:57:53;;;;;;;;;;;;;;;;;;5066389;28;19924;-61
2023/05/25 13:03:10;;;;;;;;;;;;;;;;;;5052208;28;19970;-61
2023/05/25 13:05:37;;;;;;;;;;;;;;;;;;5037338;28;19936;-61
2023/05/25 13:08:07;;;;;;;;;;;;;;;;;;5032840;28;20424;-60
2023/05/25 13:10:53;;;;;;;;;;;;;;;;;;5044878;28;19932;-60
2023/05/25 13:13:27;;;;;;;;;;;;;;;;;;5047436;28;19933;-60
2023/05/25 13:15:57;;;;;;;;;;;;;;;;;;5045718;28;20453;-60
2023/05/25 13:18:23;;;;;;;;;;;;;;;;;;5060811;28;19924;-60
2023/05/25 13:20:49;;;;;;;;;;;;;;;;;;5047385;28;19925;-61
2023/05/25 13:23:15;;;;;;;;;;;;;;;;;;5047674;28;19925;-60
2023/05/25 13:25:41;;;;;;;;;;;;;;;;;;5046576;28;19929;-61
2023/05/25 13:28:07;;;;;;;;;;;;;;;;;;5047138;28;19933;-61
2023/05/25 13:30:33;;;;;;;;;;;;;;;;;;5048331;28;19924;-60
2023/05/25 13:32:59;;;;;;;;;;;;;;;;;;5046860;28;19924;-60
2023/05/25 13:35:44;;;;;;;;;;;;;;;;;;5048614;28;19928;-61
2023/05/25 13:38:11;;;;;;;;;;;;;;;;;;5030418;28;19936;-61
2023/05/25 13:40:37;;;;;;;;;;;;;;;;;;5053120;28;19935;-61
2023/05/25 13:43:03;;;;;;;;;;;;;;;;;;5051801;28;19925;-60
2023/05/25 13:45:29;;;;;;;;;;;;;;;;;;5056659;28;19925;-60
2023/05/25 13:47:55;;;;;;;;;;;;;;;;;;5028384;28;19939;-60
2023/05/25 13:50:21;;;;;;;;;;;;;;;;;;5060292;28;19924;-60
2023/05/25 13:52:47;;;;;;;;;;;;;;;;;;5060755;28;19959;-61
2023/05/25 13:55:14;;;;;;;;;;;;;;;;;;5048564;28;19924;-61
2023/05/25 13:57:40;;;;;;;;;;;;;;;;;;5047287;28;19987;-61
2023/05/25 14:00:07;;;;;;;;;;;;;;;;;;5047084;28;20010;-62
2023/05/25 14:02:33;;;;;;;;;;;;;;;;;;5053690;28;20358;-60
2023/05/25 14:04:59;;;;;;;;;;;;;;;;;;5033893;28;20003;-60
2023/05/25 14:07:25;;;;;;;;;;;;;;;;;;5056306;28;19937;-61
2023/05/25 14:09:51;;;;;;;;;;;;;;;;;;5052880;28;19925;-59
2023/05/25 14:12:17;;;;;;;;;;;;;;;;;;5047747;28;19935;-59
2023/05/25 14:14:43;;;;;;;;;;;;;;;;;;5051726;28;20476;-59
2023/05/25 14:17:13;;;;;;;;;;;;;;;;;;5061661;28;19932;-59
2023/05/25 14:19:42;;;;;;;;;;;;;;;;;;5048103;28;19978;-59
2023/05/25 14:22:08;;;;;;;;;;;;;;;;;;5051557;28;20059;-63
2023/05/25 14:24:34;;;;;;;;;;;;;;;;;;5056932;28;20015;-59
2023/05/25 14:27:00;;;;;;;;;;;;;;;;;;5047500;28;19939;-61
2023/05/25 14:29:26;;;;;;;;;;;;;;;;;;5046478;28;19929;-60
2023/05/25 14:31:52;;;;;;;;;;;;;;;;;;5044660;28;19924;-60
2023/05/25 14:34:18;;;;;;;;;;;;;;;;;;5047024;28;19971;-60
2023/05/25 14:36:44;;;;;;;;;;;;;;;;;;5055234;28;19929;-59
2023/05/25 14:39:10;;;;;;;;;;;;;;;;;;5044831;28;20318;-59
2023/05/25 14:41:36;;;;;;;;;;;;;;;;;;5048782;28;19936;-60
2023/05/25 14:44:02;;;;;;;;;;;;;;;;;;5044050;28;20207;-59
2023/05/25 14:46:28;;;;;;;;;;;;;;;;;;5049226;28;20339;-59
2023/05/25 14:48:54;;;;;;;;;;;;;;;;;;5047405;28;20454;-60
2023/05/25 14:51:20;;;;;;;;;;;;;;;;;;5032683;28;19933;-60
2023/05/25 14:53:46;;;;;;;;;;;;;;;;;;5052482;28;19928;-61
2023/05/25 14:56:12;;;;;;;;;;;;;;;;;;5044159;28;20406;-60
2023/05/25 14:58:38;;;;;;;;;;;;;;;;;;5030836;28;19924;-61
2023/05/25 15:01:04;;;;;;;;;;;;;;;;;;5049490;28;19933;-60
2023/05/25 15:03:31;;;;;;;;;;;;;;;;;;5054160;28;19932;-59
2023/05/25 15:05:57;;;;;;;;;;;;;;;;;;5051372;28;19928;-59
2023/05/25 15:08:23;;;;;;;;;;;;;;;;;;5044522;28;19931;-58
2023/05/25 15:10:49;;;;;;;;;;;;;;;;;;5045098;28;19932;-59
2023/05/25 15:13:15;;;;;;;;;;;;;;;;;;5044030;28;19924;-59
2023/05/25 15:15:41;;;;;;;;;;;;;;;;;;5057224;28;20587;-59
2023/05/25 15:18:07;;;;;;;;;;;;;;;;;;5049973;28;19932;-59
2023/05/25 15:20:33;;;;;;;;;;;;;;;;;;5052883;28;19978;-59
2023/05/25 15:22:59;;;;;;;;;;;;;;;;;;5055245;28;20036;-58
2023/05/25 15:25:26;;;;;;;;;;;;;;;;;;5060397;28;20426;-61
2023/05/25 15:27:52;;;;;;;;;;;;;;;;;;5059897;28;19933;-60
2023/05/25 15:30:18;;;;;;;;;;;;;;;;;;5049005;28;20395;-60
2023/05/25 15:32:44;;;;;;;;;;;;;;;;;;5059656;28;20386;-60
2023/05/25 15:35:10;;;;;;;;;;;;;;;;;;5054908;28;19932;-60
2023/05/25 15:37:36;;;;;;;;;;;;;;;;;;5061736;28;19928;-60
2023/05/25 15:40:02;;;;;;;;;;;;;;;;;;5054974;28;19932;-60
2023/05/25 15:42:30;;;;;;;;;;;;;;;;;;5054570;28;22426;-60
2023/05/25 15:44:58;;;;;;;;;;;;;;;;;;5049995;28;19943;-61
2023/05/25 15:47:29;;;;;;;;;;;;;;;;;;5051924;28;19937;-60
2023/05/25 15:50:02;;;;;;;;;;;;;;;;;;5055781;28;19994;-59
2023/05/25 15:52:35;;;;;;;;;;;;;;;;;;5052548;28;19931;-60
2023/05/25 15:55:09;;;;;;;;;;;;;;;;;;5054323;28;19936;-61
2023/05/25 15:57:42;;;;;;;;;;;;;;;;;;5048503;28;19925;-60
2023/05/25 16:00:15;;;;;;;;;;;;;;;;;;5050785;28;20362;-60
2023/05/25 16:02:48;;;;;;;;;;;;;;;;;;5052561;28;19929;-60
2023/05/25 16:05:21;;;;;;;;;;;;;;;;;;5053176;28;19982;-61
2023/05/25 16:07:54;;;;;;;;;;;;;;;;;;5050420;28;19924;-60
2023/05/25 16:10:27;;;;;;;;;;;;;;;;;;5053905;28;19932;-60
2023/05/25 16:13:00;;;;;;;;;;;;;;;;;;5052220;28;19925;-61
2023/05/25 16:15:32;;;;;;;;;;;;;;;;;;5053772;28;20014;-61
2023/05/25 16:18:03;;;;;;;;;;;;;;;;;;5054756;28;19978;-60
2023/05/25 16:20:33;;;;;;;;;;;;;;;;;;5052584;28;19942;-60
2023/05/25 16:23:04;;;;;;;;;;;;;;;;;;5058668;28;19978;-61
2023/05/25 16:25:33;;;;;;;;;;;;;;;;;;5030087;28;19929;-60
2023/05/25 16:28:07;;;;;;;;;;;;;;;;;;5059606;28;19928;-60
2023/05/25 16:30:39;;;;;;;;;;;;;;;;;;5048267;28;20019;-61
2023/05/25 16:33:09;;;;;;;;;;;;;;;;;;5052295;28;19925;-61
2023/05/25 16:35:39;;;;;;;;;;;;;;;;;;5047013;28;19928;-61
2023/05/25 16:38:10;;;;;;;;;;;;;;;;;;5052115;28;19924;-60
2023/05/25 16:40:36;;;;;;;;;;;;;;;;;;5055846;28;20018;-61
2023/05/25 16:43:02;;;;;;;;;;;;;;;;;;5054473;28;20031;-60
2023/05/25 16:45:28;;;;;;;;;;;;;;;;;;5057051;28;20614;-60
2023/05/25 16:47:54;;;;;;;;;;;;;;;;;;5053144;28;20023;-62
2023/05/25 16:50:20;;;;;;;;;;;;;;;;;;5058003;28;20015;-59
2023/05/25 16:52:46;;;;;;;;;;;;;;;;;;5052857;28;19955;-59
2023/05/25 16:55:14;;;;;;;;;;;;;;;;;;5046254;28;19925;-60
2023/05/25 16:57:41;;;;;;;;;;;;;;;;;;5054711;28;19925;-60
2023/05/25 17:00:07;;;;;;;;;;;;;;;;;;5043505;28;19955;-60
2023/05/25 17:02:33;;;;;;;;;;;;;;;;;;5043823;28;20373;-59
2023/05/25 17:04:59;;;;;;;;;;;;;;;;;;5054761;28;20402;-59
2023/05/25 17:07:25;;;;;;;;;;;;;;;;;;5053680;28;19932;-58